sensor_id;sensor_type;location;lat;lon;timestamp;temperature;humidity
15107;DHT22;7654;45.308;-75.096;2023-06-04T00:00:46;20.50;59.50
15107;DHT22;7654;45.308;-75.096;2023-06-04T00:03:17;20.20;59.60
15107;DHT22;7654;45.308;-75.096;2023-06-04T00:05:48;19.90;60.10
15107;DHT22;7654;45.308;-75.096;2023-06-04T00:08:19;19.40;61.30
15107;DHT22;7654;45.308;-75.096;2023-06-04T00:10:50;19.00;61.50
15107;DHT22;7654;45.308;-75.096;2023-06-04T00:13:22;18.70;62.30
15107;DHT22;7654;45.308;-75.096;2023-06-04T00:15:52;18.40;63.40
15107;DHT22;7654;45.308;-75.096;2023-06-04T00:18:22;18.00;63.90
15107;DHT22;7654;45.308;-75.096;2023-06-04T00:20:52;17.80;64.90
15107;DHT22;7654;45.308;-75.096;2023-06-04T00:23:23;17.50;65.80
15107;DHT22;7654;45.308;-75.096;2023-06-04T00:25:53;17.30;66.50
15107;DHT22;7654;45.308;-75.096;2023-06-04T00:28:26;17.10;67.40
15107;DHT22;7654;45.308;-75.096;2023-06-04T00:30:56;16.80;68.70
15107;DHT22;7654;45.308;-75.096;2023-06-04T00:33:26;16.50;70.20
15107;DHT22;7654;45.308;-75.096;2023-06-04T00:35:57;16.10;70.10
15107;DHT22;7654;45.308;-75.096;2023-06-04T00:38:27;15.80;70.10
15107;DHT22;7654;45.308;-75.096;2023-06-04T00:40:58;15.50;71.20
15107;DHT22;7654;45.308;-75.096;2023-06-04T00:43:30;15.20;72.70
15107;DHT22;7654;45.308;-75.096;2023-06-04T00:46:02;15.00;72.90
15107;DHT22;7654;45.308;-75.096;2023-06-04T00:48:33;14.80;72.40
15107;DHT22;7654;45.308;-75.096;2023-06-04T00:51:06;14.70;72.70
15107;DHT22;7654;45.308;-75.096;2023-06-04T00:53:36;14.60;73.00
15107;DHT22;7654;45.308;-75.096;2023-06-04T00:56:07;14.40;73.20
15107;DHT22;7654;45.308;-75.096;2023-06-04T00:58:40;14.10;74.00
15107;DHT22;7654;45.308;-75.096;2023-06-04T01:01:17;13.90;74.60
15107;DHT22;7654;45.308;-75.096;2023-06-04T01:03:52;13.70;75.70
15107;DHT22;7654;45.308;-75.096;2023-06-04T01:06:30;13.40;75.70
15107;DHT22;7654;45.308;-75.096;2023-06-04T01:09:05;13.30;76.40
15107;DHT22;7654;45.308;-75.096;2023-06-04T01:11:37;13.10;77.00
15107;DHT22;7654;45.308;-75.096;2023-06-04T01:14:10;13.00;78.10
15107;DHT22;7654;45.308;-75.096;2023-06-04T01:16:47;12.90;79.50
15107;DHT22;7654;45.308;-75.096;2023-06-04T01:19:35;12.70;80.50
15107;DHT22;7654;45.308;-75.096;2023-06-04T01:22:18;12.60;82.10
15107;DHT22;7654;45.308;-75.096;2023-06-04T01:24:56;12.40;83.00
15107;DHT22;7654;45.308;-75.096;2023-06-04T01:27:30;12.30;84.30
15107;DHT22;7654;45.308;-75.096;2023-06-04T01:30:06;12.20;86.00
15107;DHT22;7654;45.308;-75.096;2023-06-04T01:32:38;12.10;87.20
15107;DHT22;7654;45.308;-75.096;2023-06-04T01:35:09;12.00;88.00
15107;DHT22;7654;45.308;-75.096;2023-06-04T01:37:41;11.90;89.30
15107;DHT22;7654;45.308;-75.096;2023-06-04T01:40:12;11.80;90.30
15107;DHT22;7654;45.308;-75.096;2023-06-04T01:42:43;11.70;90.80
15107;DHT22;7654;45.308;-75.096;2023-06-04T01:45:15;11.70;91.20
15107;DHT22;7654;45.308;-75.096;2023-06-04T01:47:46;11.60;91.30
15107;DHT22;7654;45.308;-75.096;2023-06-04T01:50:16;11.60;91.60
15107;DHT22;7654;45.308;-75.096;2023-06-04T01:52:46;11.50;91.90
15107;DHT22;7654;45.308;-75.096;2023-06-04T01:55:17;11.50;92.60
15107;DHT22;7654;45.308;-75.096;2023-06-04T01:57:48;11.40;93.40
15107;DHT22;7654;45.308;-75.096;2023-06-04T02:00:20;11.20;94.70
15107;DHT22;7654;45.308;-75.096;2023-06-04T02:02:50;11.20;96.60
15107;DHT22;7654;45.308;-75.096;2023-06-04T02:05:21;11.10;98.00
15107;DHT22;7654;45.308;-75.096;2023-06-04T02:07:52;11.10;99.90
15107;DHT22;7654;45.308;-75.096;2023-06-04T02:10:22;11.10;99.90
15107;DHT22;7654;45.308;-75.096;2023-06-04T02:12:55;11.10;99.90
15107;DHT22;7654;45.308;-75.096;2023-06-04T02:15:27;11.00;99.90
15107;DHT22;7654;45.308;-75.096;2023-06-04T02:17:59;11.00;99.90
15107;DHT22;7654;45.308;-75.096;2023-06-04T02:20:32;11.00;99.90
15107;DHT22;7654;45.308;-75.096;2023-06-04T02:23:03;10.80;99.90
15107;DHT22;7654;45.308;-75.096;2023-06-04T02:25:34;10.70;99.90
15107;DHT22;7654;45.308;-75.096;2023-06-04T02:28:04;10.60;99.90
15107;DHT22;7654;45.308;-75.096;2023-06-04T02:30:36;10.60;99.90
15107;DHT22;7654;45.308;-75.096;2023-06-04T02:33:07;10.60;99.90
15107;DHT22;7654;45.308;-75.096;2023-06-04T02:35:38;10.60;99.90
15107;DHT22;7654;45.308;-75.096;2023-06-04T02:38:09;10.90;99.90
15107;DHT22;7654;45.308;-75.096;2023-06-04T02:40:40;11.10;99.90
15107;DHT22;7654;45.308;-75.096;2023-06-04T02:43:10;11.40;99.90
15107;DHT22;7654;45.308;-75.096;2023-06-04T02:45:42;11.70;99.90
15107;DHT22;7654;45.308;-75.096;2023-06-04T02:48:13;11.90;99.90
15107;DHT22;7654;45.308;-75.096;2023-06-04T02:50:43;12.00;99.90
15107;DHT22;7654;45.308;-75.096;2023-06-04T02:53:13;12.00;99.90
15107;DHT22;7654;45.308;-75.096;2023-06-04T02:55:43;12.00;99.90
15107;DHT22;7654;45.308;-75.096;2023-06-04T02:58:14;12.00;99.90
15107;DHT22;7654;45.308;-75.096;2023-06-04T03:00:46;12.00;99.90
15107;DHT22;7654;45.308;-75.096;2023-06-04T03:03:16;12.00;99.90
15107;DHT22;7654;45.308;-75.096;2023-06-04T03:05:47;12.20;99.90
15107;DHT22;7654;45.308;-75.096;2023-06-04T03:08:18;12.30;99.90
15107;DHT22;7654;45.308;-75.096;2023-06-04T03:10:48;12.20;99.90
15107;DHT22;7654;45.308;-75.096;2023-06-04T03:13:20;12.20;99.90
15107;DHT22;7654;45.308;-75.096;2023-06-04T03:15:52;12.10;99.90
15107;DHT22;7654;45.308;-75.096;2023-06-04T03:18:23;12.00;99.90
15107;DHT22;7654;45.308;-75.096;2023-06-04T03:20:54;12.00;99.90
15107;DHT22;7654;45.308;-75.096;2023-06-04T03:23:25;11.90;99.90
15107;DHT22;7654;45.308;-75.096;2023-06-04T03:25:55;11.70;99.90
15107;DHT22;7654;45.308;-75.096;2023-06-04T03:28:26;11.70;99.90
15107;DHT22;7654;45.308;-75.096;2023-06-04T03:30:58;11.70;99.90
15107;DHT22;7654;45.308;-75.096;2023-06-04T03:33:29;11.60;99.90
15107;DHT22;7654;45.308;-75.096;2023-06-04T03:35:59;11.50;99.90
15107;DHT22;7654;45.308;-75.096;2023-06-04T03:38:30;11.40;99.90
15107;DHT22;7654;45.308;-75.096;2023-06-04T03:41:00;11.30;99.90
15107;DHT22;7654;45.308;-75.096;2023-06-04T03:43:31;11.20;99.90
15107;DHT22;7654;45.308;-75.096;2023-06-04T03:46:03;11.30;99.90
15107;DHT22;7654;45.308;-75.096;2023-06-04T03:48:33;11.20;99.90
15107;DHT22;7654;45.308;-75.096;2023-06-04T03:51:04;11.10;99.90
15107;DHT22;7654;45.308;-75.096;2023-06-04T03:53:35;11.10;99.90
15107;DHT22;7654;45.308;-75.096;2023-06-04T03:56:05;11.10;99.90
15107;DHT22;7654;45.308;-75.096;2023-06-04T03:58:36;11.00;99.90
15107;DHT22;7654;45.308;-75.096;2023-06-04T04:01:08;10.90;99.90
15107;DHT22;7654;45.308;-75.096;2023-06-04T04:03:39;10.90;99.90
15107;DHT22;7654;45.308;-75.096;2023-06-04T04:06:11;11.00;99.00
15107;DHT22;7654;45.308;-75.096;2023-06-04T04:08:42;10.90;99.00
15107;DHT22;7654;45.308;-75.096;2023-06-04T04:11:12;10.80;98.50
15107;DHT22;7654;45.308;-75.096;2023-06-04T04:13:44;10.60;98.20
15107;DHT22;7654;45.308;-75.096;2023-06-04T04:16:16;10.60;97.40
15107;DHT22;7654;45.308;-75.096;2023-06-04T04:18:47;10.60;94.60
15107;DHT22;7654;45.308;-75.096;2023-06-04T04:21:18;10.60;93.20
15107;DHT22;7654;45.308;-75.096;2023-06-04T04:23:50;10.50;91.60
15107;DHT22;7654;45.308;-75.096;2023-06-04T04:26:21;10.50;90.00
15107;DHT22;7654;45.308;-75.096;2023-06-04T04:28:56;10.50;87.00
15107;DHT22;7654;45.308;-75.096;2023-06-04T04:31:29;10.40;85.30
15107;DHT22;7654;45.308;-75.096;2023-06-04T04:34:01;10.40;82.90
15107;DHT22;7654;45.308;-75.096;2023-06-04T04:36:36;10.30;80.70
15107;DHT22;7654;45.308;-75.096;2023-06-04T04:39:08;10.20;80.30
15107;DHT22;7654;45.308;-75.096;2023-06-04T04:41:39;10.10;80.90
15107;DHT22;7654;45.308;-75.096;2023-06-04T04:44:09;10.00;80.50
15107;DHT22;7654;45.308;-75.096;2023-06-04T04:46:41;9.90;81.10
15107;DHT22;7654;45.308;-75.096;2023-06-04T04:49:11;9.80;78.80
15107;DHT22;7654;45.308;-75.096;2023-06-04T04:51:42;9.70;78.80
15107;DHT22;7654;45.308;-75.096;2023-06-04T04:54:12;9.60;78.20
15107;DHT22;7654;45.308;-75.096;2023-06-04T04:56:42;9.50;78.00
15107;DHT22;7654;45.308;-75.096;2023-06-04T04:59:12;9.30;78.20
15107;DHT22;7654;45.308;-75.096;2023-06-04T05:01:44;9.20;78.30
15107;DHT22;7654;45.308;-75.096;2023-06-04T05:04:21;9.10;79.20
15107;DHT22;7654;45.308;-75.096;2023-06-04T05:06:51;8.90;77.90
15107;DHT22;7654;45.308;-75.096;2023-06-04T05:09:21;8.80;77.40
15107;DHT22;7654;45.308;-75.096;2023-06-04T05:11:52;8.80;76.20
15107;DHT22;7654;45.308;-75.096;2023-06-04T05:14:22;8.80;77.90
15107;DHT22;7654;45.308;-75.096;2023-06-04T05:16:54;8.80;79.20
15107;DHT22;7654;45.308;-75.096;2023-06-04T05:19:25;8.70;79.50
15107;DHT22;7654;45.308;-75.096;2023-06-04T05:21:55;8.50;79.60
15107;DHT22;7654;45.308;-75.096;2023-06-04T05:24:25;8.50;80.50
15107;DHT22;7654;45.308;-75.096;2023-06-04T05:26:56;8.60;81.90
15107;DHT22;7654;45.308;-75.096;2023-06-04T05:29:27;8.50;82.20
15107;DHT22;7654;45.308;-75.096;2023-06-04T05:31:59;8.50;83.00
15107;DHT22;7654;45.308;-75.096;2023-06-04T05:34:30;8.40;84.40
15107;DHT22;7654;45.308;-75.096;2023-06-04T05:37:00;8.50;84.50
15107;DHT22;7654;45.308;-75.096;2023-06-04T05:39:32;8.50;84.10
15107;DHT22;7654;45.308;-75.096;2023-06-04T05:42:03;8.50;83.30
15107;DHT22;7654;45.308;-75.096;2023-06-04T05:44:34;8.50;83.60
15107;DHT22;7654;45.308;-75.096;2023-06-04T05:47:07;8.50;83.50
15107;DHT22;7654;45.308;-75.096;2023-06-04T05:49:37;8.70;83.80
15107;DHT22;7654;45.308;-75.096;2023-06-04T05:52:07;8.70;84.60
15107;DHT22;7654;45.308;-75.096;2023-06-04T05:54:38;8.70;85.20
15107;DHT22;7654;45.308;-75.096;2023-06-04T05:57:08;8.80;86.40
15107;DHT22;7654;45.308;-75.096;2023-06-04T05:59:38;8.70;87.10
15107;DHT22;7654;45.308;-75.096;2023-06-04T06:02:10;8.70;88.30
15107;DHT22;7654;45.308;-75.096;2023-06-04T06:04:41;8.60;88.70
15107;DHT22;7654;45.308;-75.096;2023-06-04T06:07:11;8.50;88.20
15107;DHT22;7654;45.308;-75.096;2023-06-04T06:09:42;8.50;89.20
15107;DHT22;7654;45.308;-75.096;2023-06-04T06:12:12;8.40;89.10
15107;DHT22;7654;45.308;-75.096;2023-06-04T06:14:43;8.40;89.40
15107;DHT22;7654;45.308;-75.096;2023-06-04T06:17:14;8.20;90.30
15107;DHT22;7654;45.308;-75.096;2023-06-04T06:19:45;8.20;90.70
15107;DHT22;7654;45.308;-75.096;2023-06-04T06:22:15;8.20;90.70
15107;DHT22;7654;45.308;-75.096;2023-06-04T06:24:48;8.10;91.40
15107;DHT22;7654;45.308;-75.096;2023-06-04T06:27:19;8.00;92.00
15107;DHT22;7654;45.308;-75.096;2023-06-04T06:29:49;7.90;91.90
15107;DHT22;7654;45.308;-75.096;2023-06-04T06:32:21;7.80;92.60
15107;DHT22;7654;45.308;-75.096;2023-06-04T06:34:52;7.80;92.20
15107;DHT22;7654;45.308;-75.096;2023-06-04T06:37:22;7.80;92.50
15107;DHT22;7654;45.308;-75.096;2023-06-04T06:39:53;7.90;93.30
15107;DHT22;7654;45.308;-75.096;2023-06-04T06:42:23;7.80;93.80
15107;DHT22;7654;45.308;-75.096;2023-06-04T06:44:54;7.60;94.50
15107;DHT22;7654;45.308;-75.096;2023-06-04T06:47:26;7.40;94.60
15107;DHT22;7654;45.308;-75.096;2023-06-04T06:49:56;7.30;94.90
15107;DHT22;7654;45.308;-75.096;2023-06-04T06:52:27;7.10;94.90
15107;DHT22;7654;45.308;-75.096;2023-06-04T06:55:00;7.00;95.10
15107;DHT22;7654;45.308;-75.096;2023-06-04T06:57:31;7.00;95.20
15107;DHT22;7654;45.308;-75.096;2023-06-04T07:00:02;6.90;95.20
15107;DHT22;7654;45.308;-75.096;2023-06-04T07:02:35;7.00;94.00
15107;DHT22;7654;45.308;-75.096;2023-06-04T07:05:06;7.10;93.80
15107;DHT22;7654;45.308;-75.096;2023-06-04T07:07:37;7.20;92.90
15107;DHT22;7654;45.308;-75.096;2023-06-04T07:10:08;7.10;93.50
15107;DHT22;7654;45.308;-75.096;2023-06-04T07:12:39;7.10;93.40
15107;DHT22;7654;45.308;-75.096;2023-06-04T07:15:10;7.10;93.20
15107;DHT22;7654;45.308;-75.096;2023-06-04T07:17:42;7.00;93.80
15107;DHT22;7654;45.308;-75.096;2023-06-04T07:20:13;7.10;93.00
15107;DHT22;7654;45.308;-75.096;2023-06-04T07:22:43;7.00;93.60
15107;DHT22;7654;45.308;-75.096;2023-06-04T07:25:14;7.10;93.40
15107;DHT22;7654;45.308;-75.096;2023-06-04T07:27:44;7.10;94.00
15107;DHT22;7654;45.308;-75.096;2023-06-04T07:30:14;7.10;95.10
15107;DHT22;7654;45.308;-75.096;2023-06-04T07:32:48;7.10;95.90
15107;DHT22;7654;45.308;-75.096;2023-06-04T07:35:18;7.20;95.10
15107;DHT22;7654;45.308;-75.096;2023-06-04T07:37:50;7.20;95.60
15107;DHT22;7654;45.308;-75.096;2023-06-04T07:40:20;7.20;96.80
15107;DHT22;7654;45.308;-75.096;2023-06-04T07:42:50;7.10;97.30
15107;DHT22;7654;45.308;-75.096;2023-06-04T07:45:21;7.00;97.00
15107;DHT22;7654;45.308;-75.096;2023-06-04T07:47:55;7.00;96.40
15107;DHT22;7654;45.308;-75.096;2023-06-04T07:50:26;6.90;96.30
15107;DHT22;7654;45.308;-75.096;2023-06-04T07:52:56;6.90;95.70
15107;DHT22;7654;45.308;-75.096;2023-06-04T07:55:26;7.00;94.60
15107;DHT22;7654;45.308;-75.096;2023-06-04T07:57:56;7.00;96.60
15107;DHT22;7654;45.308;-75.096;2023-06-04T08:00:29;7.00;96.50
15107;DHT22;7654;45.308;-75.096;2023-06-04T08:03:01;6.90;97.20
15107;DHT22;7654;45.308;-75.096;2023-06-04T08:05:32;6.80;97.10
15107;DHT22;7654;45.308;-75.096;2023-06-04T08:08:02;6.80;96.50
15107;DHT22;7654;45.308;-75.096;2023-06-04T08:10:34;6.80;97.80
15107;DHT22;7654;45.308;-75.096;2023-06-04T08:13:05;6.80;97.60
15107;DHT22;7654;45.308;-75.096;2023-06-04T08:15:35;6.70;98.20
15107;DHT22;7654;45.308;-75.096;2023-06-04T08:18:07;6.70;98.60
15107;DHT22;7654;45.308;-75.096;2023-06-04T08:20:37;6.70;98.90
15107;DHT22;7654;45.308;-75.096;2023-06-04T08:23:08;6.60;99.40
15107;DHT22;7654;45.308;-75.096;2023-06-04T08:25:38;6.40;99.60
15107;DHT22;7654;45.308;-75.096;2023-06-04T08:28:08;6.20;99.90
15107;DHT22;7654;45.308;-75.096;2023-06-04T08:30:39;6.00;99.90
15107;DHT22;7654;45.308;-75.096;2023-06-04T08:33:11;5.80;99.90
15107;DHT22;7654;45.308;-75.096;2023-06-04T08:35:42;5.60;99.90
15107;DHT22;7654;45.308;-75.096;2023-06-04T08:38:12;5.40;99.90
15107;DHT22;7654;45.308;-75.096;2023-06-04T08:40:43;5.20;99.90
15107;DHT22;7654;45.308;-75.096;2023-06-04T08:43:14;5.10;99.90
15107;DHT22;7654;45.308;-75.096;2023-06-04T08:45:49;5.00;99.90
15107;DHT22;7654;45.308;-75.096;2023-06-04T08:48:23;4.80;99.90
15107;DHT22;7654;45.308;-75.096;2023-06-04T08:50:56;4.60;99.90
15107;DHT22;7654;45.308;-75.096;2023-06-04T08:53:27;4.50;99.90
15107;DHT22;7654;45.308;-75.096;2023-06-04T08:55:57;4.40;99.90
15107;DHT22;7654;45.308;-75.096;2023-06-04T08:58:31;4.40;99.90
15107;DHT22;7654;45.308;-75.096;2023-06-04T09:01:02;4.30;99.90
15107;DHT22;7654;45.308;-75.096;2023-06-04T09:03:37;4.30;99.90
15107;DHT22;7654;45.308;-75.096;2023-06-04T09:06:07;4.20;99.90
15107;DHT22;7654;45.308;-75.096;2023-06-04T09:08:38;4.20;99.90
15107;DHT22;7654;45.308;-75.096;2023-06-04T09:11:14;4.30;99.90
15107;DHT22;7654;45.308;-75.096;2023-06-04T09:13:47;4.30;99.90
15107;DHT22;7654;45.308;-75.096;2023-06-04T09:16:18;4.30;99.90
15107;DHT22;7654;45.308;-75.096;2023-06-04T09:18:50;4.40;99.90
15107;DHT22;7654;45.308;-75.096;2023-06-04T09:21:20;4.50;99.90
15107;DHT22;7654;45.308;-75.096;2023-06-04T09:23:51;4.40;99.90
15107;DHT22;7654;45.308;-75.096;2023-06-04T09:26:21;4.50;99.90
15107;DHT22;7654;45.308;-75.096;2023-06-04T09:28:51;4.60;99.90
15107;DHT22;7654;45.308;-75.096;2023-06-04T09:31:26;4.60;99.90
15107;DHT22;7654;45.308;-75.096;2023-06-04T09:34:01;4.60;99.90
15107;DHT22;7654;45.308;-75.096;2023-06-04T09:36:32;4.70;99.90
15107;DHT22;7654;45.308;-75.096;2023-06-04T09:39:03;4.70;99.90
15107;DHT22;7654;45.308;-75.096;2023-06-04T09:41:34;4.80;99.90
15107;DHT22;7654;45.308;-75.096;2023-06-04T09:44:05;5.00;99.90
15107;DHT22;7654;45.308;-75.096;2023-06-04T09:46:39;5.00;99.90
15107;DHT22;7654;45.308;-75.096;2023-06-04T09:49:10;4.90;99.90
15107;DHT22;7654;45.308;-75.096;2023-06-04T09:51:47;4.90;99.90
15107;DHT22;7654;45.308;-75.096;2023-06-04T09:54:18;4.90;99.90
15107;DHT22;7654;45.308;-75.096;2023-06-04T09:56:48;4.90;99.90
15107;DHT22;7654;45.308;-75.096;2023-06-04T09:59:18;4.90;99.90
15107;DHT22;7654;45.308;-75.096;2023-06-04T10:01:49;4.90;99.90
15107;DHT22;7654;45.308;-75.096;2023-06-04T10:04:23;4.90;99.90
15107;DHT22;7654;45.308;-75.096;2023-06-04T10:06:54;5.10;99.90
15107;DHT22;7654;45.308;-75.096;2023-06-04T10:09:25;5.20;99.90
15107;DHT22;7654;45.308;-75.096;2023-06-04T10:12:00;5.20;99.90
15107;DHT22;7654;45.308;-75.096;2023-06-04T10:14:35;5.30;99.90
15107;DHT22;7654;45.308;-75.096;2023-06-04T10:17:09;5.40;99.90
15107;DHT22;7654;45.308;-75.096;2023-06-04T10:19:44;5.50;99.90
15107;DHT22;7654;45.308;-75.096;2023-06-04T10:22:14;5.60;99.90
15107;DHT22;7654;45.308;-75.096;2023-06-04T10:24:45;5.70;99.90
15107;DHT22;7654;45.308;-75.096;2023-06-04T10:27:17;5.70;99.90
15107;DHT22;7654;45.308;-75.096;2023-06-04T10:29:50;5.80;99.90
15107;DHT22;7654;45.308;-75.096;2023-06-04T10:32:21;5.90;99.90
15107;DHT22;7654;45.308;-75.096;2023-06-04T10:34:53;5.90;99.90
15107;DHT22;7654;45.308;-75.096;2023-06-04T10:37:26;6.00;99.90
15107;DHT22;7654;45.308;-75.096;2023-06-04T10:39:58;6.20;99.90
15107;DHT22;7654;45.308;-75.096;2023-06-04T10:42:38;6.20;99.90
15107;DHT22;7654;45.308;-75.096;2023-06-04T10:45:09;6.30;99.90
15107;DHT22;7654;45.308;-75.096;2023-06-04T10:47:40;6.40;99.90
15107;DHT22;7654;45.308;-75.096;2023-06-04T10:50:14;6.50;99.90
15107;DHT22;7654;45.308;-75.096;2023-06-04T10:52:54;6.70;99.90
15107;DHT22;7654;45.308;-75.096;2023-06-04T10:55:25;6.90;99.90
15107;DHT22;7654;45.308;-75.096;2023-06-04T10:57:56;7.10;99.90
15107;DHT22;7654;45.308;-75.096;2023-06-04T11:00:37;7.30;99.90
15107;DHT22;7654;45.308;-75.096;2023-06-04T11:03:09;7.50;99.90
15107;DHT22;7654;45.308;-75.096;2023-06-04T11:05:43;7.80;99.90
15107;DHT22;7654;45.308;-75.096;2023-06-04T11:08:14;8.10;99.90
15107;DHT22;7654;45.308;-75.096;2023-06-04T11:10:45;8.40;99.90
15107;DHT22;7654;45.308;-75.096;2023-06-04T11:13:16;8.70;99.90
15107;DHT22;7654;45.308;-75.096;2023-06-04T11:15:52;8.90;99.90
15107;DHT22;7654;45.308;-75.096;2023-06-04T11:18:24;9.10;99.90
15107;DHT22;7654;45.308;-75.096;2023-06-04T11:21:01;9.30;99.90
15107;DHT22;7654;45.308;-75.096;2023-06-04T11:23:32;9.70;99.90
15107;DHT22;7654;45.308;-75.096;2023-06-04T11:26:03;9.90;99.90
15107;DHT22;7654;45.308;-75.096;2023-06-04T11:28:33;10.20;99.90
15107;DHT22;7654;45.308;-75.096;2023-06-04T11:31:03;10.30;99.90
15107;DHT22;7654;45.308;-75.096;2023-06-04T11:33:43;10.60;99.90
15107;DHT22;7654;45.308;-75.096;2023-06-04T11:36:24;10.80;99.90
15107;DHT22;7654;45.308;-75.096;2023-06-04T11:38:56;11.00;99.90
15107;DHT22;7654;45.308;-75.096;2023-06-04T11:41:27;11.20;99.90
15107;DHT22;7654;45.308;-75.096;2023-06-04T11:44:03;11.40;99.90
15107;DHT22;7654;45.308;-75.096;2023-06-04T11:46:40;11.60;99.90
15107;DHT22;7654;45.308;-75.096;2023-06-04T11:49:13;11.70;99.90
15107;DHT22;7654;45.308;-75.096;2023-06-04T11:51:48;11.70;99.90
15107;DHT22;7654;45.308;-75.096;2023-06-04T11:54:19;11.80;97.70
15107;DHT22;7654;45.308;-75.096;2023-06-04T11:56:51;11.80;99.80
15107;DHT22;7654;45.308;-75.096;2023-06-04T11:59:21;11.80;98.60
15107;DHT22;7654;45.308;-75.096;2023-06-04T12:01:52;11.90;97.20
15107;DHT22;7654;45.308;-75.096;2023-06-04T12:04:22;12.00;96.10
15107;DHT22;7654;45.308;-75.096;2023-06-04T12:06:55;12.10;96.50
15107;DHT22;7654;45.308;-75.096;2023-06-04T12:09:27;12.20;92.90
15107;DHT22;7654;45.308;-75.096;2023-06-04T12:11:59;12.30;93.60
15107;DHT22;7654;45.308;-75.096;2023-06-04T12:14:30;12.50;94.50
15107;DHT22;7654;45.308;-75.096;2023-06-04T12:17:01;12.60;92.40
15107;DHT22;7654;45.308;-75.096;2023-06-04T12:19:33;12.80;93.20
15107;DHT22;7654;45.308;-75.096;2023-06-04T12:22:06;12.90;92.20
15107;DHT22;7654;45.308;-75.096;2023-06-04T12:24:47;13.10;91.50
15107;DHT22;7654;45.308;-75.096;2023-06-04T12:27:17;13.30;90.60
15107;DHT22;7654;45.308;-75.096;2023-06-04T12:29:57;13.30;88.20
15107;DHT22;7654;45.308;-75.096;2023-06-04T12:32:28;13.40;89.20
15107;DHT22;7654;45.308;-75.096;2023-06-04T12:34:59;13.50;89.20
15107;DHT22;7654;45.308;-75.096;2023-06-04T12:37:30;13.60;87.70
15107;DHT22;7654;45.308;-75.096;2023-06-04T12:40:01;13.70;90.10
15107;DHT22;7654;45.308;-75.096;2023-06-04T12:42:34;13.90;88.30
15107;DHT22;7654;45.308;-75.096;2023-06-04T12:45:06;14.00;86.60
15107;DHT22;7654;45.308;-75.096;2023-06-04T12:47:36;14.10;87.70
15107;DHT22;7654;45.308;-75.096;2023-06-04T12:50:07;14.30;85.80
15107;DHT22;7654;45.308;-75.096;2023-06-04T12:52:39;14.40;86.30
15107;DHT22;7654;45.308;-75.096;2023-06-04T12:55:09;14.50;82.60
15107;DHT22;7654;45.308;-75.096;2023-06-04T12:57:40;14.60;80.10
15107;DHT22;7654;45.308;-75.096;2023-06-04T13:00:13;14.60;83.00
15107;DHT22;7654;45.308;-75.096;2023-06-04T13:02:45;14.70;80.00
15107;DHT22;7654;45.308;-75.096;2023-06-04T13:05:15;14.80;78.90
15107;DHT22;7654;45.308;-75.096;2023-06-04T13:07:47;14.90;82.70
15107;DHT22;7654;45.308;-75.096;2023-06-04T13:10:18;15.00;80.00
15107;DHT22;7654;45.308;-75.096;2023-06-04T13:12:48;15.10;79.00
15107;DHT22;7654;45.308;-75.096;2023-06-04T13:15:19;15.10;77.40
15107;DHT22;7654;45.308;-75.096;2023-06-04T13:17:49;15.20;78.80
15107;DHT22;7654;45.308;-75.096;2023-06-04T13:20:19;15.30;77.90
15107;DHT22;7654;45.308;-75.096;2023-06-04T13:22:51;15.40;78.40
15107;DHT22;7654;45.308;-75.096;2023-06-04T13:25:22;15.50;80.60
15107;DHT22;7654;45.308;-75.096;2023-06-04T13:27:52;15.60;80.50
15107;DHT22;7654;45.308;-75.096;2023-06-04T13:30:23;15.60;77.70
15107;DHT22;7654;45.308;-75.096;2023-06-04T13:32:54;15.70;77.90
15107;DHT22;7654;45.308;-75.096;2023-06-04T13:35:26;15.80;78.30
15107;DHT22;7654;45.308;-75.096;2023-06-04T13:37:58;15.80;79.50
15107;DHT22;7654;45.308;-75.096;2023-06-04T13:40:29;15.90;76.60
15107;DHT22;7654;45.308;-75.096;2023-06-04T13:42:59;15.90;74.40
15107;DHT22;7654;45.308;-75.096;2023-06-04T13:45:29;15.90;73.70
15107;DHT22;7654;45.308;-75.096;2023-06-04T13:48:00;16.00;75.30
15107;DHT22;7654;45.308;-75.096;2023-06-04T13:50:34;16.10;73.30
15107;DHT22;7654;45.308;-75.096;2023-06-04T13:53:06;16.20;75.60
15107;DHT22;7654;45.308;-75.096;2023-06-04T13:55:36;16.30;73.00
15107;DHT22;7654;45.308;-75.096;2023-06-04T13:58:07;16.40;70.90
15107;DHT22;7654;45.308;-75.096;2023-06-04T14:00:37;16.40;72.40
15107;DHT22;7654;45.308;-75.096;2023-06-04T14:03:07;16.50;72.20
15107;DHT22;7654;45.308;-75.096;2023-06-04T14:05:37;16.60;73.00
15107;DHT22;7654;45.308;-75.096;2023-06-04T14:08:09;16.60;70.00
15107;DHT22;7654;45.308;-75.096;2023-06-04T14:10:40;16.70;72.10
15107;DHT22;7654;45.308;-75.096;2023-06-04T14:13:10;16.70;70.90
15107;DHT22;7654;45.308;-75.096;2023-06-04T14:15:41;16.80;71.80
15107;DHT22;7654;45.308;-75.096;2023-06-04T14:18:11;16.80;73.00
15107;DHT22;7654;45.308;-75.096;2023-06-04T14:20:42;16.80;68.70
15107;DHT22;7654;45.308;-75.096;2023-06-04T14:23:14;16.80;70.40
15107;DHT22;7654;45.308;-75.096;2023-06-04T14:25:45;16.90;70.80
15107;DHT22;7654;45.308;-75.096;2023-06-04T14:28:15;16.90;69.20
15107;DHT22;7654;45.308;-75.096;2023-06-04T14:30:46;17.10;66.90
15107;DHT22;7654;45.308;-75.096;2023-06-04T14:33:16;17.10;69.30
15107;DHT22;7654;45.308;-75.096;2023-06-04T14:35:47;17.30;67.70
15107;DHT22;7654;45.308;-75.096;2023-06-04T14:38:19;17.30;68.90
15107;DHT22;7654;45.308;-75.096;2023-06-04T14:40:49;17.40;69.30
15107;DHT22;7654;45.308;-75.096;2023-06-04T14:43:20;17.50;67.70
15107;DHT22;7654;45.308;-75.096;2023-06-04T14:45:50;17.50;69.00
15107;DHT22;7654;45.308;-75.096;2023-06-04T14:48:21;17.60;68.20
15107;DHT22;7654;45.308;-75.096;2023-06-04T14:50:52;17.80;70.20
15107;DHT22;7654;45.308;-75.096;2023-06-04T14:53:25;17.80;67.70
15107;DHT22;7654;45.308;-75.096;2023-06-04T14:55:55;17.90;69.00
15107;DHT22;7654;45.308;-75.096;2023-06-04T14:58:26;18.00;69.80
15107;DHT22;7654;45.308;-75.096;2023-06-04T15:00:56;18.00;68.60
15107;DHT22;7654;45.308;-75.096;2023-06-04T15:03:28;18.00;69.80
15107;DHT22;7654;45.308;-75.096;2023-06-04T15:05:59;18.10;69.60
15107;DHT22;7654;45.308;-75.096;2023-06-04T15:08:47;18.20;72.40
15107;DHT22;7654;45.308;-75.096;2023-06-04T15:11:17;18.40;71.50
15107;DHT22;7654;45.308;-75.096;2023-06-04T15:13:48;18.50;70.60
15107;DHT22;7654;45.308;-75.096;2023-06-04T15:16:19;18.50;69.10
15107;DHT22;7654;45.308;-75.096;2023-06-04T15:18:49;18.60;71.70
15107;DHT22;7654;45.308;-75.096;2023-06-04T15:21:19;18.80;72.00
15107;DHT22;7654;45.308;-75.096;2023-06-04T15:23:52;18.90;69.60
15107;DHT22;7654;45.308;-75.096;2023-06-04T15:26:22;19.00;69.80
15107;DHT22;7654;45.308;-75.096;2023-06-04T15:28:55;19.20;72.70
15107;DHT22;7654;45.308;-75.096;2023-06-04T15:31:26;19.30;69.70
15107;DHT22;7654;45.308;-75.096;2023-06-04T15:33:56;19.30;71.20
15107;DHT22;7654;45.308;-75.096;2023-06-04T15:36:27;19.30;72.10
15107;DHT22;7654;45.308;-75.096;2023-06-04T15:38:58;19.30;67.60
15107;DHT22;7654;45.308;-75.096;2023-06-04T15:41:29;19.40;73.00
15107;DHT22;7654;45.308;-75.096;2023-06-04T15:44:00;19.50;69.30
15107;DHT22;7654;45.308;-75.096;2023-06-04T15:46:30;19.70;72.90
15107;DHT22;7654;45.308;-75.096;2023-06-04T15:49:05;19.90;71.60